Time;durP1;ratioP1;P1;durP2;ratioP2;P2;SDS_P1;SDS_P2;PMS_P1;PMS_P2;Temp;Humidity;BMP_temperature;BMP_pressure;BME280_temperature;BME280_humidity;BME280_pressure;Samples;Min_cycle;Max_cycle;Signal;HPM_P1;HPM_P2
2022/01/04 00:01:57;;;;;;;12.15;7.18;;;;;;;3.70;69.28;94800.19;5113389;28;20034;-72
2022/01/04 00:04:23;;;;;;;17.52;11.00;;;;;;;3.17;70.90;94804.00;5131989;27;20035;-72
2022/01/04 00:06:49;;;;;;;21.77;12.30;;;;;;;3.35;70.31;94793.53;5096444;28;20027;-72
2022/01/04 00:09:14;;;;;;;13.02;8.18;;;;;;;3.47;70.09;94779.19;5130349;28;20489;-72
2022/01/04 00:14:08;;;;;;;8.52;5.75;;;;;;;3.93;68.82;94786.06;5131852;27;20397;-72
2022/01/04 00:16:34;;;;;;;9.20;5.75;;;;;;;4.00;68.75;94780.47;5131537;27;20078;-72
2022/01/04 00:18:59;;;;;;;11.13;7.70;;;;;;;4.08;68.17;94789.50;5113343;28;20477;-72
2022/01/04 00:21:25;;;;;;;34.47;19.48;;;;;;;3.77;68.42;94792.06;5130223;27;20516;-72
2022/01/04 00:23:50;;;;;;;42.47;21.67;;;;;;;3.52;69.82;94792.63;5130411;28;20027;-72
2022/01/04 00:26:15;;;;;;;45.00;24.70;;;;;;;3.57;69.52;94790.63;5122667;28;20027;-72
2022/01/04 00:28:41;;;;;;;39.08;20.80;;;;;;;3.44;69.79;94786.25;5092599;28;20055;-72
2022/01/04 00:31:06;;;;;;;45.47;22.92;;;;;;;3.46;68.78;94789.56;5109670;28;20052;-72
2022/01/04 00:33:32;;;;;;;50.00;25.75;;;;;;;3.01;69.81;94809.09;5109754;28;20035;-72
2022/01/04 00:35:57;;;;;;;42.10;24.10;;;;;;;2.97;69.99;94810.19;5109532;28;20027;-72
2022/01/04 00:38:22;;;;;;;44.55;24.85;;;;;;;3.08;69.57;94803.56;5092687;28;20040;-72
2022/01/04 00:40:48;;;;;;;40.00;23.30;;;;;;;3.04;69.80;94806.41;5109666;28;20054;-72
2022/01/04 00:43:13;;;;;;;40.10;23.50;;;;;;;2.75;70.15;94813.88;5110910;28;20085;-72
2022/01/04 00:45:39;;;;;;;27.10;17.08;;;;;;;2.58;69.71;94807.06;5109563;28;20096;-72
2022/01/04 00:50:31;;;;;;;24.50;14.65;;;;;;;2.43;70.88;94823.25;5110983;28;20031;-72
2022/01/04 00:52:57;;;;;;;18.98;12.60;;;;;;;2.42;71.19;94819.00;5096559;28;20032;-71
2022/01/04 00:55:22;;;;;;;18.42;11.23;;;;;;;2.49;70.93;94825.50;5096239;28;20179;-72
2022/01/04 00:57:48;;;;;;;19.25;11.70;;;;;;;2.47;71.24;94820.44;5113297;28;20144;-72
2022/01/04 01:00:14;;;;;;;17.95;10.60;;;;;;;2.45;71.72;94795.75;5079148;28;20034;-71
2022/01/04 01:02:40;;;;;;;14.05;8.80;;;;;;;2.55;71.81;94799.53;5113050;28;20527;-72
2022/01/04 01:05:06;;;;;;;12.30;7.95;;;;;;;2.49;71.49;94776.78;5096049;28;20039;-72
2022/01/04 01:07:33;;;;;;;14.15;8.88;;;;;;;2.45;71.51;94785.50;5114357;28;20019;-72
2022/01/04 01:12:24;;;;;;;13.20;9.93;;;;;;;2.08;71.12;94774.56;5114472;28;20038;-72
2022/01/04 01:14:49;;;;;;;19.73;12.02;;;;;;;1.77;74.28;94777.81;5096073;28;20043;-72
2022/01/04 01:17:14;;;;;;;19.50;12.25;;;;;;;1.99;73.88;94775.03;5112955;28;20030;-72
2022/01/04 01:19:40;;;;;;;19.83;12.45;;;;;;;1.98;73.88;94781.91;5112988;28;20028;-72
2022/01/04 01:22:05;;;;;;;21.27;13.85;;;;;;;1.92;73.68;94773.66;5095744;28;20031;-71
2022/01/04 01:24:31;;;;;;;17.13;12.38;;;;;;;2.02;73.49;94780.00;5112952;28;20028;-72
2022/01/04 01:26:56;;;;;;;23.40;13.73;;;;;;;1.79;73.84;94784.53;5126105;27;20044;-71
2022/01/04 01:29:21;;;;;;;30.13;14.45;;;;;;;1.64;75.33;94792.13;5134632;27;20030;-72
2022/01/04 01:31:47;;;;;;;22.70;12.85;;;;;;;1.78;74.44;94779.47;5133240;27;20026;-72
2022/01/04 01:34:12;;;;;;;21.38;13.13;;;;;;;1.81;73.86;94781.88;5133129;27;20031;-72
2022/01/04 01:36:38;;;;;;;18.63;10.88;;;;;;;1.91;74.36;94779.72;5115868;27;20027;-72
2022/01/04 01:39:03;;;;;;;19.08;11.07;;;;;;;1.99;74.25;94773.28;5134560;27;20027;-72
2022/01/04 01:41:29;;;;;;;22.70;12.98;;;;;;;2.12;74.14;94768.41;5133048;27;20027;-72
2022/01/04 01:43:55;;;;;;;12.60;8.30;;;;;;;2.06;73.82;94768.69;5134431;27;20481;-72
2022/01/04 01:46:20;;;;;;;14.73;9.52;;;;;;;1.70;73.45;94784.13;5115803;27;20063;-73
2022/01/04 01:48:46;;;;;;;22.88;12.38;;;;;;;1.40;76.24;94794.97;5134281;27;20023;-71
2022/01/04 01:51:15;;;;;;;20.73;12.40;;;;;;;1.50;75.57;94791.06;5132777;27;20032;-71
2022/01/04 01:53:41;;;;;;;21.38;11.60;;;;;;;1.56;75.06;94798.47;5132848;27;20023;-72
2022/01/04 01:56:07;;;;;;;18.73;11.07;;;;;;;1.61;74.75;94793.09;5115498;27;20084;-72
2022/01/04 01:58:32;;;;;;;18.08;10.48;;;;;;;1.74;74.53;94799.28;5132683;27;20503;-71
2022/01/04 02:00:58;;;;;;;16.15;9.65;;;;;;;1.79;74.36;94788.84;5132495;27;20039;-72
2022/01/04 02:03:23;;;;;;;16.75;10.23;;;;;;;1.87;74.05;94786.72;5114526;27;20038;-71
2022/01/04 02:05:48;;;;;;;17.20;9.75;;;;;;;1.94;73.56;94779.56;5115542;27;20080;-71
2022/01/04 02:08:14;;;;;;;17.20;9.35;;;;;;;1.95;74.27;94782.06;5098230;27;20023;-72
2022/01/04 02:10:39;;;;;;;14.88;9.68;;;;;;;1.84;74.08;94788.59;5115341;27;20031;-72
2022/01/04 02:13:05;;;;;;;18.42;10.88;;;;;;;1.74;73.62;94801.84;5132380;27;20104;-71
2022/01/04 02:15:33;;;;;;;23.98;12.32;;;;;;;1.80;73.86;94787.91;5133475;27;20116;-71
2022/01/04 02:17:58;;;;;;;18.55;11.32;;;;;;;1.83;73.95;94787.75;5132351;27;20083;-72
2022/01/04 02:20:24;;;;;;;19.92;12.48;;;;;;;1.94;73.86;94774.44;5133354;27;20047;-72
2022/01/04 02:22:49;;;;;;;17.58;10.88;;;;;;;1.95;73.33;94770.94;5098003;27;20023;-72
2022/01/04 02:25:15;;;;;;;16.02;9.30;;;;;;;1.85;73.74;94785.97;5133271;27;20034;-71
2022/01/04 02:27:41;;;;;;;14.30;8.57;;;;;;;1.86;73.34;94779.09;5095403;28;20498;-72
2022/01/04 02:30:09;;;;;;;20.60;11.25;;;;;;;1.44;73.50;94773.44;5111229;28;20428;-72
2022/01/04 02:32:34;;;;;;;17.83;10.50;;;;;;;1.40;74.23;94789.03;5094565;28;20024;-73
2022/01/04 02:35:00;;;;;;;20.27;11.48;;;;;;;1.22;75.50;94781.28;5077511;28;20020;-73
2022/01/04 02:37:26;;;;;;;15.45;9.48;;;;;;;1.28;74.16;94775.06;5111338;28;20103;-74
2022/01/04 02:39:52;;;;;;;13.00;7.65;;;;;;;1.51;74.99;94781.66;5111520;28;20023;-72
2022/01/04 02:42:17;;;;;;;10.40;7.07;;;;;;;1.63;75.30;94775.94;5077385;28;20160;-73
2022/01/04 02:44:43;;;;;;;10.68;7.07;;;;;;;1.82;74.89;94769.94;5111355;28;20039;-72
2022/01/04 02:47:08;;;;;;;11.70;6.35;;;;;;;1.94;75.20;94777.81;5112689;28;20031;-72
2022/01/04 02:49:34;;;;;;;9.38;6.38;;;;;;;2.15;74.52;94765.69;5111313;28;20433;-73
2022/01/04 02:51:59;;;;;;;9.43;6.20;;;;;;;2.23;74.27;94750.75;5112327;28;20027;-72
2022/01/04 02:54:24;;;;;;;11.23;6.45;;;;;;;2.42;73.49;94752.34;5111075;28;20024;-72
2022/01/04 02:56:50;;;;;;;9.80;6.18;;;;;;;2.52;73.37;94745.81;5093900;28;20042;-71
2022/01/04 02:59:15;;;;;;;11.35;6.30;;;;;;;2.58;72.77;94754.94;5110815;28;20031;-73
2022/01/04 03:01:41;;;;;;;10.15;6.25;;;;;;;2.62;72.42;94746.19;5093995;28;20035;-73
2022/01/04 03:04:07;;;;;;;9.38;5.70;;;;;;;2.72;72.03;94741.38;5093979;28;20034;-72
2022/01/04 03:06:34;;;;;;;10.95;5.65;;;;;;;2.81;71.73;94748.59;5110780;28;20173;-72
2022/01/04 03:09:00;;;;;;;11.32;6.40;;;;;;;2.90;71.27;94748.09;5110816;28;20117;-73
2022/01/04 03:11:25;;;;;;;12.90;6.15;;;;;;;2.92;71.42;94743.69;5111977;28;20110;-72
2022/01/04 03:13:50;;;;;;;9.88;5.55;;;;;;;3.07;70.81;94750.59;5093553;28;20028;-72
2022/01/04 03:16:16;;;;;;;8.95;5.57;;;;;;;3.02;71.05;94739.75;5109923;28;20027;-73
2022/01/04 03:19:02;;;;;;;7.47;5.13;;;;;;;3.02;70.72;94731.22;5076751;28;20031;-73
2022/01/04 03:21:27;;;;;;;10.30;5.53;;;;;;;3.00;71.04;94733.84;5110448;28;20118;-72
2022/01/04 03:23:52;;;;;;;9.43;5.38;;;;;;;2.98;71.35;94738.25;5112007;28;20038;-72
2022/01/04 03:26:17;;;;;;;10.18;5.65;;;;;;;2.96;71.13;94742.66;5101203;27;20023;-72
2022/01/04 03:28:43;;;;;;;10.60;5.85;;;;;;;3.04;70.66;94740.50;5096864;27;20404;-73
2022/01/04 03:31:08;;;;;;;9.38;5.45;;;;;;;3.12;69.96;94740.03;5130931;27;20051;-73
2022/01/04 03:33:35;;;;;;;9.40;6.22;;;;;;;3.14;69.78;94739.06;5130974;27;20075;-73
2022/01/04 03:36:01;;;;;;;8.65;6.45;;;;;;;3.05;70.31;94738.75;5130819;27;20035;-73
2022/01/04 03:38:26;;;;;;;8.43;5.60;;;;;;;3.11;70.05;94743.53;5113789;27;20031;-73
2022/01/04 03:40:52;;;;;;;38.38;18.52;;;;;;;2.77;70.65;94745.38;5113730;27;20023;-73
2022/01/04 03:43:17;;;;;;;130.60;56.40;;;;;;;2.43;71.87;94757.41;5113526;28;20038;-72
2022/01/04 03:45:43;;;;;;;73.95;37.25;;;;;;;2.46;71.07;94757.22;5130792;27;20058;-72
2022/01/04 03:48:08;;;;;;;45.20;22.83;;;;;;;2.54;71.25;94772.22;5130612;27;20497;-73
2022/01/04 03:50:33;;;;;;;29.75;14.88;;;;;;;2.56;71.06;94767.81;5113548;27;20482;-72
2022/01/04 03:52:59;;;;;;;13.55;7.35;;;;;;;2.48;71.26;94764.88;5131800;27;20031;-73
2022/01/04 03:55:24;;;;;;;9.13;5.43;;;;;;;2.43;71.62;94764.28;5130367;27;20499;-72
2022/01/04 03:57:50;;;;;;;10.25;6.25;;;;;;;2.01;71.75;94757.84;5113423;28;20027;-73
2022/01/04 04:00:15;;;;;;;10.50;5.88;;;;;;;2.17;71.50;94763.88;5113366;28;20496;-73
2022/01/04 04:02:41;;;;;;;9.50;6.00;;;;;;;2.32;72.07;94776.81;5130489;28;20517;-73
2022/01/04 04:05:06;;;;;;;11.82;7.20;;;;;;;2.16;72.86;94775.00;5113330;28;20039;-72
2022/01/04 04:07:32;;;;;;;10.95;6.47;;;;;;;2.24;71.94;94757.50;5130464;28;20038;-73
2022/01/04 04:09:57;;;;;;;12.85;7.60;;;;;;;2.42;71.41;94767.72;5132122;27;20027;-73
2022/01/04 04:12:23;;;;;;;11.57;6.65;;;;;;;2.49;72.01;94765.69;5131677;27;20040;-73
2022/01/04 04:14:49;;;;;;;10.15;6.10;;;;;;;2.49;71.61;94758.81;5130563;28;20031;-73
2022/01/04 04:17:14;;;;;;;19.13;11.57;;;;;;;2.53;70.80;94768.00;5130401;28;20065;-73
2022/01/04 04:19:40;;;;;;;24.75;15.07;;;;;;;1.90;72.55;94768.63;5113379;28;20027;-73
2022/01/04 04:22:05;;;;;;;31.85;17.52;;;;;;;2.04;72.33;94767.13;5113188;28;20023;-72
2022/01/04 04:24:31;;;;;;;69.95;29.83;;;;;;;2.02;71.68;94774.88;5130245;27;20023;-72
2022/01/04 04:26:56;;;;;;;70.68;32.92;;;;;;;1.95;71.66;94770.94;5120815;27;20035;-72
2022/01/04 04:29:22;;;;;;;63.45;32.08;;;;;;;1.54;71.95;94778.94;5096763;28;20030;-73
2022/01/04 04:31:47;;;;;;;64.00;34.60;;;;;;;1.44;73.14;94780.28;5096805;28;20036;-73
2022/01/04 04:34:12;;;;;;;50.85;29.58;;;;;;;1.17;72.95;94788.38;5113846;28;20027;-72
2022/01/04 04:36:38;;;;;;;54.53;30.10;;;;;;;1.19;73.65;94783.16;5114922;28;20023;-73
2022/01/04 04:39:04;;;;;;;55.65;34.00;;;;;;;1.23;73.19;94782.97;5096632;28;20042;-72
2022/01/04 04:41:29;;;;;;;50.58;28.02;;;;;;;1.17;72.60;94785.81;5113676;28;20028;-73
2022/01/04 04:43:55;;;;;;;50.72;26.92;;;;;;;1.06;73.48;94785.47;5113575;28;20494;-72
2022/01/04 04:46:21;;;;;;;45.40;25.50;;;;;;;0.97;73.50;94803.78;5113562;28;20048;-72
2022/01/04 04:48:47;;;;;;;48.28;25.73;;;;;;;0.97;73.17;94807.19;5113553;28;20058;-72
2022/01/04 04:51:12;;;;;;;33.00;15.90;;;;;;;0.78;73.37;94802.09;5113557;28;20490;-72
2022/01/04 04:53:38;;;;;;;21.13;12.60;;;;;;;0.79;73.81;94790.13;5113291;28;20443;-72
2022/01/04 04:56:03;;;;;;;22.25;14.82;;;;;;;0.32;75.63;94808.38;5114542;27;20051;-73
2022/01/04 04:58:29;;;;;;;32.60;19.23;;;;;;;0.35;75.83;94798.00;5090017;28;20504;-72
2022/01/04 05:00:54;;;;;;;24.40;14.13;;;;;;;0.46;75.25;94789.88;5108176;28;20453;-73
2022/01/04 05:03:20;;;;;;;21.90;13.63;;;;;;;0.49;75.71;94799.97;5095538;28;20215;-72
2022/01/04 05:05:45;;;;;;;20.95;13.07;;;;;;;0.51;75.08;94796.47;5094973;28;20051;-72
2022/01/04 05:08:11;;;;;;;18.33;11.60;;;;;;;0.57;75.28;94787.69;5129510;27;20038;-72
2022/01/04 05:10:36;;;;;;;13.07;8.52;;;;;;;0.67;75.21;94799.19;5113994;28;20190;-72
2022/01/04 05:13:02;;;;;;;9.73;6.45;;;;;;;0.85;76.27;94789.84;5094478;28;20042;-73
2022/01/04 05:15:27;;;;;;;10.43;6.40;;;;;;;1.09;76.41;94788.72;5104559;28;20117;-72
2022/01/04 05:17:52;;;;;;;9.80;7.15;;;;;;;1.26;75.56;94793.06;5112182;28;20494;-72
2022/01/04 05:20:18;;;;;;;9.35;6.03;;;;;;;1.49;74.80;94794.53;5111259;28;20063;-72
2022/01/04 05:22:43;;;;;;;8.25;5.57;;;;;;;1.61;74.92;94790.53;5112021;28;20496;-73
2022/01/04 05:25:09;;;;;;;11.10;6.38;;;;;;;1.70;74.39;94789.25;5095238;28;20039;-72
2022/01/04 05:27:34;;;;;;;10.75;6.35;;;;;;;1.79;74.55;94792.22;5111066;27;20076;-73
2022/01/04 05:30:00;;;;;;;11.15;6.90;;;;;;;1.89;74.05;94779.78;5094697;28;20093;-72
2022/01/04 05:32:25;;;;;;;10.88;7.00;;;;;;;1.93;73.35;94768.47;5109760;28;20114;-73
2022/01/04 05:34:51;;;;;;;11.73;6.40;;;;;;;2.03;73.38;94773.97;5090519;28;20032;-72
2022/01/04 05:37:16;;;;;;;22.88;12.65;;;;;;;1.90;73.22;94776.31;5070234;28;20050;-72
2022/01/04 05:39:42;;;;;;;27.80;16.20;;;;;;;1.45;74.71;94780.22;5105387;28;20028;-72
2022/01/04 05:42:08;;;;;;;17.15;10.88;;;;;;;1.43;74.97;94774.34;5104826;28;20486;-72
2022/01/04 05:44:35;;;;;;;13.52;9.10;;;;;;;1.50;74.46;94769.75;5105331;28;20027;-72
2022/01/04 05:47:00;;;;;;;12.88;8.50;;;;;;;1.66;74.18;94775.78;5113396;27;20126;-73
2022/01/04 05:49:26;;;;;;;12.13;7.47;;;;;;;1.70;73.44;94782.44;5128026;27;20110;-72
2022/01/04 05:51:51;;;;;;;16.38;7.88;;;;;;;1.77;73.66;94770.97;5132415;27;20437;-73
2022/01/04 05:54:17;;;;;;;15.73;8.80;;;;;;;1.68;73.28;94768.88;5114796;27;20043;-72
2022/01/04 05:56:42;;;;;;;15.20;9.52;;;;;;;1.76;74.10;94766.75;5131403;27;20042;-72
2022/01/04 05:59:07;;;;;;;13.88;8.95;;;;;;;1.83;73.19;94767.28;5114464;27;20027;-72
2022/01/04 06:01:33;;;;;;;14.82;8.20;;;;;;;1.86;73.81;94758.59;5118960;27;20413;-72
2022/01/04 06:03:58;;;;;;;29.92;17.88;;;;;;;1.49;74.67;94763.78;5111299;27;20039;-73
2022/01/04 06:06:24;;;;;;;61.50;32.92;;;;;;;1.51;74.84;94771.41;5111355;28;20028;-73
2022/01/04 06:08:50;;;;;;;37.83;21.92;;;;;;;1.59;74.61;94768.47;5112065;27;20043;-72
2022/01/04 06:11:31;;;;;;;26.63;17.65;;;;;;;1.61;74.40;94772.63;5097259;28;20497;-73
2022/01/04 06:16:41;;;;;;;13.20;9.07;;;;;;;1.65;74.43;94769.00;5111166;28;20119;-73
2022/01/04 06:19:06;;;;;;;10.65;6.47;;;;;;;1.69;73.83;94780.75;5111096;27;20031;-72
2022/01/04 06:21:32;;;;;;;9.32;6.10;;;;;;;1.70;73.84;94774.75;5108682;28;20111;-72
2022/01/04 06:23:57;;;;;;;11.57;6.20;;;;;;;1.62;74.28;94774.28;5076723;28;20539;-73
2022/01/04 06:26:23;;;;;;;9.40;6.10;;;;;;;1.62;74.67;94786.28;5110717;28;20015;-73
2022/01/04 06:28:49;;;;;;;11.15;6.53;;;;;;;1.49;74.61;94765.53;5117152;27;20047;-72
2022/01/04 06:31:14;;;;;;;10.75;6.35;;;;;;;1.54;74.29;94778.94;5081007;27;20059;-73
2022/01/04 06:33:40;;;;;;;11.95;7.50;;;;;;;1.53;74.36;94778.13;5114930;27;20474;-73
2022/01/04 06:36:05;;;;;;;12.95;7.82;;;;;;;1.46;74.43;94766.50;5109631;27;20413;-72
2022/01/04 06:38:31;;;;;;;12.20;7.32;;;;;;;1.63;73.93;94775.94;5106609;27;20541;-72
2022/01/04 06:40:56;;;;;;;14.00;8.82;;;;;;;1.42;74.45;94776.97;5114101;27;20043;-72
2022/01/04 06:43:21;;;;;;;15.77;10.35;;;;;;;1.57;74.31;94776.25;5122265;27;20040;-72
2022/01/04 06:45:47;;;;;;;18.05;12.48;;;;;;;1.64;74.28;94764.78;5110117;28;20024;-72
2022/01/04 06:48:12;;;;;;;23.65;12.40;;;;;;;1.42;75.24;94772.69;5094859;28;20046;-72
2022/01/04 06:50:38;;;;;;;29.92;17.00;;;;;;;1.31;76.31;94777.50;5123417;27;20481;-72
2022/01/04 06:53:03;;;;;;;25.33;14.90;;;;;;;1.47;75.34;94762.22;5114147;27;20039;-73
2022/01/04 06:55:29;;;;;;;32.40;18.95;;;;;;;1.48;75.77;94763.88;5121368;27;20031;-72
2022/01/04 06:57:54;;;;;;;28.50;16.92;;;;;;;1.61;74.76;94761.53;5094100;28;20012;-72
2022/01/04 07:00:19;;;;;;;33.80;19.17;;;;;;;1.72;74.29;94761.84;5110785;28;20077;-72
2022/01/04 07:02:45;;;;;;;48.38;25.98;;;;;;;1.72;74.29;94762.66;5112359;28;20023;-72
2022/01/04 07:05:10;;;;;;;56.58;29.48;;;;;;;1.85;74.10;94757.78;5093679;28;20088;-72
2022/01/04 07:07:36;;;;;;;38.80;23.42;;;;;;;1.69;74.17;94760.25;5111946;28;20110;-73
2022/01/04 07:10:02;;;;;;;41.90;23.50;;;;;;;1.67;74.74;94767.22;5093812;28;20405;-71
2022/01/04 07:12:27;;;;;;;76.60;42.97;;;;;;;1.50;74.37;94755.19;5101925;27;20024;-71
2022/01/04 07:14:52;;;;;;;96.78;51.15;;;;;;;1.61;74.48;94770.06;5127270;27;20046;-71
2022/01/04 07:17:18;;;;;;;135.63;69.63;;;;;;;1.64;74.31;94780.16;5116109;27;20031;-71
2022/01/04 07:19:46;;;;;;;124.05;68.63;;;;;;;1.77;73.95;94775.25;5105808;28;20445;-71
2022/01/04 07:22:11;;;;;;;127.45;67.10;;;;;;;1.85;73.91;94774.91;5106218;27;20466;-72
2022/01/04 07:24:36;;;;;;;127.40;62.92;;;;;;;1.69;74.05;94783.31;5090697;27;20034;-72
2022/01/04 07:27:04;;;;;;;125.38;65.80;;;;;;;1.49;75.40;94779.16;5131068;27;20019;-71
2022/01/04 07:29:30;;;;;;;121.20;64.30;;;;;;;1.44;75.39;94773.44;5113322;27;20122;-72
2022/01/04 07:31:55;;;;;;;82.63;46.08;;;;;;;1.48;75.45;94781.81;5117356;27;20109;-72
2022/01/04 07:34:21;;;;;;;102.57;53.65;;;;;;;1.39;75.82;94764.31;5108813;28;20032;-74
2022/01/04 07:36:46;;;;;;;75.63;43.80;;;;;;;1.53;75.54;94779.84;5107229;28;20031;-72
2022/01/04 07:39:12;;;;;;;77.57;44.25;;;;;;;1.76;76.01;94782.13;5118820;27;20035;-72
2022/01/04 07:41:37;;;;;;;72.68;42.78;;;;;;;1.77;75.53;94780.38;5126856;27;20621;-72
2022/01/04 07:44:03;;;;;;;72.65;43.00;;;;;;;1.84;75.12;94786.03;5109423;28;20031;-71
2022/01/04 07:46:29;;;;;;;69.38;40.40;;;;;;;1.95;75.24;94776.94;5113102;27;20023;-72
2022/01/04 07:48:54;;;;;;;66.45;39.67;;;;;;;2.20;74.78;94773.13;5093269;28;20061;-71
2022/01/04 07:51:20;;;;;;;65.63;38.83;;;;;;;2.35;74.13;94764.66;5103967;27;20161;-72
2022/01/04 07:53:45;;;;;;;59.72;35.65;;;;;;;2.45;73.59;94759.88;5132035;27;20060;-72
2022/01/04 07:56:11;;;;;;;62.33;36.95;;;;;;;2.65;73.66;94751.97;5120584;27;20106;-72
2022/01/04 07:58:36;;;;;;;67.85;36.47;;;;;;;2.76;73.04;94745.44;5092905;28;20047;-72
2022/01/04 08:01:02;;;;;;;65.63;35.15;;;;;;;2.89;73.20;94749.81;5121629;28;20032;-72
2022/01/04 08:03:27;;;;;;;75.75;39.53;;;;;;;3.02;73.12;94759.44;5109668;28;20046;-72
2022/01/04 08:05:53;;;;;;;62.45;39.13;;;;;;;3.08;71.99;94757.38;5109960;28;20041;-72
2022/01/04 08:08:18;;;;;;;45.70;29.77;;;;;;;3.12;71.18;94748.59;5111157;28;20032;-72
2022/01/04 08:10:46;;;;;;;48.35;30.33;;;;;;;3.21;71.47;94749.00;5109945;28;20497;-72
2022/01/04 08:13:12;;;;;;;45.90;30.58;;;;;;;3.30;70.12;94751.06;5109925;28;20517;-72
2022/01/04 08:15:37;;;;;;;51.05;32.25;;;;;;;3.31;70.54;94755.28;5110919;28;20024;-72
2022/01/04 08:18:03;;;;;;;51.58;33.47;;;;;;;3.34;70.67;94750.81;5109797;28;20036;-72
2022/01/04 08:20:28;;;;;;;57.75;34.75;;;;;;;3.21;71.33;94754.97;5109826;28;20035;-72
2022/01/04 08:22:54;;;;;;;54.58;36.42;;;;;;;3.37;71.00;94760.06;5092928;28;20035;-71
2022/01/04 08:25:19;;;;;;;50.03;34.65;;;;;;;2.81;72.39;94767.38;5109719;28;20073;-72
2022/01/04 08:27:45;;;;;;;54.30;34.88;;;;;;;2.94;72.97;94762.41;5110029;28;20488;-72
2022/01/04 08:30:11;;;;;;;65.45;37.20;;;;;;;3.07;72.44;94760.84;5092529;28;20513;-72
2022/01/04 08:32:37;;;;;;;51.30;33.80;;;;;;;3.31;71.60;94750.13;5109603;28;20019;-73
2022/01/04 08:35:03;;;;;;;56.70;34.08;;;;;;;3.57;70.76;94749.53;5092804;28;20046;-72
2022/01/04 08:37:29;;;;;;;55.78;32.80;;;;;;;3.32;71.21;94741.53;5092800;28;20038;-72
2022/01/04 08:39:55;;;;;;;49.47;31.70;;;;;;;3.30;71.07;94751.06;5111299;28;20031;-72
2022/01/04 08:42:22;;;;;;;44.38;28.35;;;;;;;3.08;72.92;94762.50;5092683;28;20516;-73
2022/01/04 08:44:48;;;;;;;56.33;30.38;;;;;;;3.39;72.03;94750.53;5093033;28;20111;-72
2022/01/04 08:47:14;;;;;;;53.85;29.77;;;;;;;3.17;72.22;94738.06;5109600;28;20129;-72
2022/01/04 08:49:39;;;;;;;63.42;31.50;;;;;;;3.22;72.40;94745.53;5111257;28;20489;-72
2022/01/04 08:52:05;;;;;;;86.75;40.47;;;;;;;3.27;73.27;94743.53;5110830;28;20047;-71
2022/01/04 08:54:31;;;;;;;83.50;38.80;;;;;;;3.50;71.91;94735.34;5092703;28;20036;-72
2022/01/04 08:56:57;;;;;;;62.08;31.92;;;;;;;3.76;71.03;94730.47;5109468;28;20035;-72
2022/01/04 08:59:22;;;;;;;63.72;34.83;;;;;;;3.83;69.91;94729.22;5092638;28;20538;-72
2022/01/04 09:01:48;;;;;;;52.88;30.80;;;;;;;3.85;70.63;94727.41;5109523;28;20031;-71
2022/01/04 09:04:13;;;;;;;49.95;29.63;;;;;;;4.06;70.23;94737.34;5109490;28;20035;-71
2022/01/04 09:06:38;;;;;;;43.70;25.10;;;;;;;4.14;69.79;94735.16;5109489;28;20019;-72
2022/01/04 09:09:04;;;;;;;41.97;25.02;;;;;;;4.26;69.62;94736.97;5092420;28;20417;-71
2022/01/04 09:11:29;;;;;;;51.55;29.88;;;;;;;4.40;68.87;94731.88;5093795;28;20027;-71
2022/01/04 09:14:10;;;;;;;55.50;32.65;;;;;;;4.42;68.68;94727.44;5113150;28;20034;-71
2022/01/04 09:19:24;;;;;;;50.03;29.67;;;;;;;4.62;68.02;94713.38;5099219;28;20383;-72
2022/01/04 09:21:50;;;;;;;57.25;33.70;;;;;;;4.60;67.98;94711.84;5096028;28;20031;-73
2022/01/04 09:24:15;;;;;;;51.90;30.98;;;;;;;4.31;68.76;94716.97;5114361;28;20463;-72
2022/01/04 09:26:40;;;;;;;48.97;29.08;;;;;;;4.54;68.68;94714.75;5112833;28;20016;-72
2022/01/04 09:29:06;;;;;;;51.00;29.38;;;;;;;4.61;68.58;94698.84;5095644;28;20485;-72
2022/01/04 09:31:31;;;;;;;49.10;30.70;;;;;;;4.42;68.65;94695.75;5112843;28;20070;-72
2022/01/04 09:33:58;;;;;;;42.70;27.90;;;;;;;4.72;68.56;94692.22;5095677;28;20055;-72
2022/01/04 09:36:23;;;;;;;45.53;29.40;;;;;;;4.84;68.33;94684.56;5095622;28;20027;-72
2022/01/04 09:38:48;;;;;;;44.83;27.65;;;;;;;5.02;67.70;94677.44;5112406;28;20390;-72
2022/01/04 09:41:14;;;;;;;38.33;26.30;;;;;;;5.10;67.12;94661.53;5112538;28;20413;-72
2022/01/04 09:43:39;;;;;;;37.85;23.75;;;;;;;5.22;66.26;94665.88;5112478;28;20035;-72
2022/01/04 09:46:05;;;;;;;37.65;25.08;;;;;;;5.31;66.31;94638.69;5112463;28;20038;-72
2022/01/04 09:48:30;;;;;;;37.75;22.90;;;;;;;5.45;65.64;94645.53;5078487;28;20044;-72
2022/01/04 09:50:57;;;;;;;38.95;23.48;;;;;;;5.49;65.77;94644.38;5113647;28;20039;-72
2022/01/04 09:53:23;;;;;;;38.90;25.25;;;;;;;5.57;65.81;94637.84;5095330;28;20035;-72
2022/01/04 09:55:49;;;;;;;40.08;23.67;;;;;;;5.67;65.37;94632.88;5095269;28;20028;-72
2022/01/04 09:58:19;;;;;;;36.35;23.55;;;;;;;5.77;65.96;94633.09;5095218;28;20064;-72
2022/01/04 10:00:44;;;;;;;36.30;23.98;;;;;;;5.88;64.78;94625.47;5095626;28;20482;-72
2022/01/04 10:03:14;;;;;;;38.90;26.55;;;;;;;5.67;64.02;94621.75;5112072;28;20027;-72
2022/01/04 10:05:40;;;;;;;41.43;24.83;;;;;;;5.81;64.39;94614.75;5095605;28;20514;-72
2022/01/04 10:08:07;;;;;;;39.55;24.33;;;;;;;5.97;63.43;94603.44;5113480;27;20114;-72
2022/01/04 10:10:32;;;;;;;39.05;25.50;;;;;;;6.09;63.35;94612.91;5113138;28;20496;-72
2022/01/04 10:13:03;;;;;;;40.47;26.80;;;;;;;5.83;63.93;94606.91;5111881;28;20114;-72
2022/01/04 10:15:43;;;;;;;42.65;26.70;;;;;;;5.87;62.93;94595.44;5112936;28;20103;-72
2022/01/04 10:18:16;;;;;;;38.35;25.02;;;;;;;5.57;63.46;94599.19;5111878;28;20118;-72
2022/01/04 10:20:42;;;;;;;44.55;24.98;;;;;;;5.81;63.31;94583.81;5113006;28;20450;-72
2022/01/04 10:23:11;;;;;;;38.90;22.42;;;;;;;6.03;62.83;94582.38;5110806;28;20034;-72
2022/01/04 10:25:36;;;;;;;32.38;21.25;;;;;;;6.21;62.37;94568.22;5094560;28;20028;-72
2022/01/04 10:28:02;;;;;;;34.67;21.40;;;;;;;6.29;63.29;94578.00;5111605;28;20504;-72
2022/01/04 10:30:28;;;;;;;32.78;21.38;;;;;;;6.31;62.67;94580.47;5111431;28;20119;-72
2022/01/04 10:33:10;;;;;;;28.67;18.88;;;;;;;6.45;62.82;94575.16;5112758;28;20024;-72
2022/01/04 10:35:36;;;;;;;34.50;21.25;;;;;;;6.46;63.18;94571.66;5111369;28;20073;-72
2022/01/04 10:38:15;;;;;;;32.63;20.63;;;;;;;6.61;63.44;94562.84;5111421;28;20152;-72
2022/01/04 10:40:46;;;;;;;31.27;19.83;;;;;;;6.71;62.98;94558.66;5111304;28;20099;-72
2022/01/04 10:43:18;;;;;;;31.40;20.88;;;;;;;6.55;63.37;94568.44;5111419;28;20031;-72
2022/01/04 10:45:44;;;;;;;32.83;20.50;;;;;;;6.28;64.47;94558.28;5111328;28;20024;-72
2022/01/04 10:48:10;;;;;;;30.92;19.83;;;;;;;6.52;63.68;94557.47;5111203;28;20146;-71
2022/01/04 10:50:36;;;;;;;31.90;21.60;;;;;;;6.49;63.77;94548.19;5112287;28;20534;-72
2022/01/04 10:53:02;;;;;;;33.67;22.42;;;;;;;6.65;63.81;94563.44;5094019;28;20073;-72
2022/01/04 10:55:35;;;;;;;36.00;24.17;;;;;;;6.69;63.78;94542.47;5094088;28;20030;-72
2022/01/04 10:58:00;;;;;;;34.80;21.27;;;;;;;6.67;63.61;94540.91;5111130;28;20024;-72
2022/01/04 11:00:26;;;;;;;37.22;23.00;;;;;;;6.78;63.38;94532.41;5093872;28;20034;-72
2022/01/04 11:02:52;;;;;;;32.95;21.17;;;;;;;6.92;62.67;94539.97;5093991;28;20035;-72
2022/01/04 11:05:19;;;;;;;34.65;22.55;;;;;;;6.87;63.18;94536.91;5112035;28;20030;-72
2022/01/04 11:08:00;;;;;;;29.88;20.73;;;;;;;7.04;62.54;94530.50;5077202;28;20459;-72
2022/01/04 11:10:28;;;;;;;28.25;20.08;;;;;;;7.17;62.15;94528.66;5110650;28;20118;-72
2022/01/04 11:12:55;;;;;;;29.77;19.17;;;;;;;7.15;62.78;94544.25;5093946;28;20037;-72
2022/01/04 11:15:20;;;;;;;33.45;18.88;;;;;;;7.25;61.89;94535.84;5093726;28;20030;-72
2022/01/04 11:17:46;;;;;;;29.25;18.55;;;;;;;7.22;62.21;94536.91;5093677;28;20028;-72
2022/01/04 11:20:12;;;;;;;28.05;18.45;;;;;;;7.26;62.10;94537.50;5093614;28;20032;-72
2022/01/04 11:22:40;;;;;;;26.00;17.83;;;;;;;7.29;61.76;94525.16;5110505;28;20023;-72
2022/01/04 11:25:06;;;;;;;21.33;14.07;;;;;;;7.35;60.02;94516.13;5093559;28;20027;-72
2022/01/04 11:27:31;;;;;;;17.67;11.80;;;;;;;7.38;60.17;94523.66;5093621;28;20566;-73
2022/01/04 11:29:58;;;;;;;17.80;11.77;;;;;;;7.42;60.37;94514.75;5093440;28;20425;-72
2022/01/04 11:32:24;;;;;;;22.10;13.70;;;;;;;7.51;59.96;94516.63;5093555;28;20030;-73
2022/01/04 11:35:22;;;;;;;18.48;13.43;;;;;;;7.61;59.15;94509.84;5093533;28;20107;-73
2022/01/04 11:37:54;;;;;;;20.20;13.85;;;;;;;7.57;59.69;94505.00;5110409;28;20081;-72